Time;durP1;ratioP1;P1;durP2;ratioP2;P2;SDS_P1;SDS_P2;PMS_P1;PMS_P2;Temp;Humidity;BMP_temperature;BMP_pressure;BME280_temperature;BME280_humidity;BME280_pressure;Samples;Min_cycle;Max_cycle;Signal;HPM_P1;HPM_P2
2023/10/19 00:00:20;;;;;;;;;;;;;;;;;;1912917;28;7009;-65
2023/10/19 00:01:18;;;;;;;;;;;;;;;;;;1911970;28;7025;-65
2023/10/19 00:02:19;;;;;;;;;;;;;;;;;;1912411;28;7135;-64
2023/10/19 00:03:19;;;;;;;;;;;;;;;;;;1912163;28;7316;-65
2023/10/19 00:04:17;;;;;;;;;;;;;;;;;;1909855;28;7284;-65
2023/10/19 00:05:16;;;;;;;;;;;;;;;;;;1910892;28;8104;-64
2023/10/19 00:06:13;;;;;;;;;;;;;;;;;;1911093;28;7134;-65
2023/10/19 00:07:15;;;;;;;;;;;;;;;;;;1914544;28;7206;-65
2023/10/19 00:08:23;;;;;;;;;;;;;;;;;;1920087;28;7025;-65
2023/10/19 00:09:20;;;;;;;;;;;;;;;;;;1920359;28;7212;-65
2023/10/19 00:10:18;;;;;;;;;;;;;;;;;;1918915;28;7096;-65
2023/10/19 00:11:22;;;;;;;;;;;;;;;;;;1920054;28;8034;-65
2023/10/19 00:12:22;;;;;;;;;;;;;;;;;;1919459;28;7017;-65
2023/10/19 00:13:19;;;;;;;;;;;;;;;;;;1917991;28;7366;-65
2023/10/19 00:14:18;;;;;;;;;;;;;;;;;;1912758;28;7013;-65
2023/10/19 00:15:15;;;;;;;;;;;;;;;;;;1914948;28;8035;-65
2023/10/19 00:16:23;;;;;;;;;;;;;;;;;;1913367;28;7205;-65
2023/10/19 00:17:21;;;;;;;;;;;;;;;;;;1917784;28;7112;-65
2023/10/19 00:18:22;;;;;;;;;;;;;;;;;;1920340;28;7005;-65
2023/10/19 00:19:20;;;;;;;;;;;;;;;;;;1920222;28;7013;-65
2023/10/19 00:20:35;;;;;;;;;;;;;;;;;;1919870;28;7009;-65
2023/10/19 00:21:49;;;;;;;;;;;;;;;;;;1920333;28;7135;-65
2023/10/19 00:22:47;;;;;;;;;;;;;;;;;;1911549;28;7137;-65
2023/10/19 00:23:49;;;;;;;;;;;;;;;;;;1911849;28;7474;-65
2023/10/19 00:24:47;;;;;;;;;;;;;;;;;;1919842;28;7010;-65
2023/10/19 00:25:50;;;;;;;;;;;;;;;;;;1919649;28;7014;-65
2023/10/19 00:26:49;;;;;;;;;;;;;;;;;;1920289;28;7009;-65
2023/10/19 00:27:48;;;;;;;;;;;;;;;;;;1918893;28;7078;-66
2023/10/19 00:28:49;;;;;;;;;;;;;;;;;;1914816;28;7010;-65
2023/10/19 00:29:49;;;;;;;;;;;;;;;;;;1919898;28;7350;-64
2023/10/19 00:30:49;;;;;;;;;;;;;;;;;;1920120;28;7077;-65
2023/10/19 00:31:48;;;;;;;;;;;;;;;;;;1919829;28;7013;-64
2023/10/19 00:32:46;;;;;;;;;;;;;;;;;;1919701;28;7057;-65
2023/10/19 00:33:43;;;;;;;;;;;;;;;;;;1920017;28;7013;-65
2023/10/19 00:34:43;;;;;;;;;;;;;;;;;;1920147;28;7042;-65
2023/10/19 00:35:47;;;;;;;;;;;;;;;;;;1920589;28;7053;-65
2023/10/19 00:36:45;;;;;;;;;;;;;;;;;;1919767;28;7096;-65
2023/10/19 00:37:44;;;;;;;;;;;;;;;;;;1920383;28;7038;-64
2023/10/19 00:39:52;;;;;;;;;;;;;;;;;;1920088;28;7138;-64
2023/10/19 00:40:53;;;;;;;;;;;;;;;;;;1920502;28;7116;-65
2023/10/19 00:41:53;;;;;;;;;;;;;;;;;;1919255;28;7005;-64
2023/10/19 00:42:54;;;;;;;;;;;;;;;;;;1920446;28;8034;-64
2023/10/19 00:43:57;;;;;;;;;;;;;;;;;;1919684;28;7128;-65
2023/10/19 00:45:02;;;;;;;;;;;;;;;;;;1916049;28;7077;-64
2023/10/19 00:46:06;;;;;;;;;;;;;;;;;;1919211;28;7013;-65
2023/10/19 00:47:07;;;;;;;;;;;;;;;;;;1920411;28;7298;-64
2023/10/19 00:48:08;;;;;;;;;;;;;;;;;;1919429;28;8118;-65
2023/10/19 00:49:06;;;;;;;;;;;;;;;;;;1919834;28;7013;-65
2023/10/19 00:50:05;;;;;;;;;;;;;;;;;;1919827;28;7116;-64
2023/10/19 00:52:11;;;;;;;;;;;;;;;;;;1919840;28;7005;-64
2023/10/19 00:52:31;;;;;;;;;;;;;;;;;;1907250;28;7018;-64
2023/10/19 00:53:29;;;;;;;;;;;;;;;;;;1919777;28;7385;-65
2023/10/19 00:54:35;;;;;;;;;;;;;;;;;;1912753;28;8006;-65
2023/10/19 00:55:33;;;;;;;;;;;;;;;;;;1913008;28;7413;-65
2023/10/19 00:56:34;;;;;;;;;;;;;;;;;;1918203;28;7125;-65
2023/10/19 00:57:35;;;;;;;;;;;;;;;;;;1912888;28;7093;-64
2023/10/19 00:58:35;;;;;;;;;;;;;;;;;;1911082;28;7074;-64
2023/10/19 00:59:43;;;;;;;;;;;;;;;;;;1912358;28;7013;-65
2023/10/19 01:00:43;;;;;;;;;;;;;;;;;;1912968;28;7134;-64
2023/10/19 01:01:45;;;;;;;;;;;;;;;;;;1917986;28;7013;-64
2023/10/19 01:02:46;;;;;;;;;;;;;;;;;;1915124;28;7006;-64
2023/10/19 01:03:44;;;;;;;;;;;;;;;;;;1919855;28;7013;-65
2023/10/19 01:04:44;;;;;;;;;;;;;;;;;;1919731;28;7009;-66
2023/10/19 01:05:47;;;;;;;;;;;;;;;;;;1912806;28;7572;-64
2023/10/19 01:06:59;;;;;;;;;;;;;;;;;;1912098;28;7029;-64
2023/10/19 01:07:57;;;;;;;;;;;;;;;;;;1920802;28;7092;-64
2023/10/19 01:08:55;;;;;;;;;;;;;;;;;;1912595;28;7013;-65
2023/10/19 01:09:56;;;;;;;;;;;;;;;;;;1918265;28;7014;-64
2023/10/19 01:10:54;;;;;;;;;;;;;;;;;;1920162;28;7013;-64
2023/10/19 01:11:52;;;;;;;;;;;;;;;;;;1919046;28;7009;-64
2023/10/19 01:12:51;;;;;;;;;;;;;;;;;;1919951;28;7120;-64
2023/10/19 01:13:50;;;;;;;;;;;;;;;;;;1920445;28;7014;-64
2023/10/19 01:15:07;;;;;;;;;;;;;;;;;;1918827;28;7045;-64
2023/10/19 01:16:05;;;;;;;;;;;;;;;;;;1916418;28;7092;-65
2023/10/19 01:17:02;;;;;;;;;;;;;;;;;;1918133;28;7013;-64
2023/10/19 01:18:01;;;;;;;;;;;;;;;;;;1920612;28;7303;-64
2023/10/19 01:18:58;;;;;;;;;;;;;;;;;;1920457;28;7021;-65
2023/10/19 01:19:58;;;;;;;;;;;;;;;;;;1919786;28;7092;-64
2023/10/19 01:20:55;;;;;;;;;;;;;;;;;;1919630;28;7298;-64
2023/10/19 01:21:59;;;;;;;;;;;;;;;;;;1917993;28;7049;-63
2023/10/19 01:24:08;;;;;;;;;;;;;;;;;;1919440;28;7013;-65
2023/10/19 01:25:10;;;;;;;;;;;;;;;;;;1919682;28;7012;-64
2023/10/19 01:26:08;;;;;;;;;;;;;;;;;;1919420;28;7123;-65
2023/10/19 01:27:08;;;;;;;;;;;;;;;;;;1919509;28;7092;-64
2023/10/19 01:28:10;;;;;;;;;;;;;;;;;;1919629;28;8061;-64
2023/10/19 01:29:14;;;;;;;;;;;;;;;;;;1920034;28;7041;-65
2023/10/19 01:30:14;;;;;;;;;;;;;;;;;;1920620;28;7021;-65
2023/10/19 01:31:17;;;;;;;;;;;;;;;;;;1919982;28;7013;-65
2023/10/19 01:32:15;;;;;;;;;;;;;;;;;;1919515;28;7013;-65
2023/10/19 01:33:13;;;;;;;;;;;;;;;;;;1919680;28;7042;-64
2023/10/19 01:34:11;;;;;;;;;;;;;;;;;;1918046;28;7049;-64
2023/10/19 01:35:08;;;;;;;;;;;;;;;;;;1919519;28;7021;-64
2023/10/19 01:36:12;;;;;;;;;;;;;;;;;;1919207;28;7013;-64
2023/10/19 01:37:12;;;;;;;;;;;;;;;;;;1919816;28;7092;-64
2023/10/19 01:38:09;;;;;;;;;;;;;;;;;;1918541;28;7319;-64
2023/10/19 01:39:10;;;;;;;;;;;;;;;;;;1919939;28;8043;-65
2023/10/19 01:40:08;;;;;;;;;;;;;;;;;;1919431;28;7009;-64
2023/10/19 01:41:19;;;;;;;;;;;;;;;;;;1919435;28;7103;-64
2023/10/19 01:42:17;;;;;;;;;;;;;;;;;;1913640;28;7347;-64
2023/10/19 01:43:21;;;;;;;;;;;;;;;;;;1919256;28;7013;-65
2023/10/19 01:44:20;;;;;;;;;;;;;;;;;;1919416;28;7237;-64
2023/10/19 01:45:18;;;;;;;;;;;;;;;;;;1914306;28;7009;-64
2023/10/19 01:46:31;;;;;;;;;;;;;;;;;;1919497;28;7013;-64
2023/10/19 01:47:28;;;;;;;;;;;;;;;;;;1919177;28;7009;-64
2023/10/19 01:48:35;;;;;;;;;;;;;;;;;;1918886;28;7013;-65
2023/10/19 01:49:33;;;;;;;;;;;;;;;;;;1920225;28;7077;-64
2023/10/19 01:50:31;;;;;;;;;;;;;;;;;;1919154;28;7100;-64
2023/10/19 01:51:30;;;;;;;;;;;;;;;;;;1919921;28;7017;-64
2023/10/19 01:52:27;;;;;;;;;;;;;;;;;;1919778;28;7116;-65
2023/10/19 01:53:25;;;;;;;;;;;;;;;;;;1919822;28;7311;-65
2023/10/19 01:54:24;;;;;;;;;;;;;;;;;;1920386;28;7033;-64
2023/10/19 01:55:22;;;;;;;;;;;;;;;;;;1919387;28;7006;-64
2023/10/19 01:56:21;;;;;;;;;;;;;;;;;;1919673;28;7045;-64
2023/10/19 01:57:18;;;;;;;;;;;;;;;;;;1919237;28;7045;-65
2023/10/19 01:58:16;;;;;;;;;;;;;;;;;;1919216;28;7243;-64
2023/10/19 01:59:16;;;;;;;;;;;;;;;;;;1920127;28;7088;-64
2023/10/19 02:00:22;;;;;;;;;;;;;;;;;;1919638;28;7013;-65
2023/10/19 02:01:28;;;;;;;;;;;;;;;;;;1918226;28;7017;-64
2023/10/19 02:02:26;;;;;;;;;;;;;;;;;;1919985;28;7009;-65
2023/10/19 02:03:24;;;;;;;;;;;;;;;;;;1917864;28;7042;-64
2023/10/19 02:04:22;;;;;;;;;;;;;;;;;;1919664;28;7263;-65
2023/10/19 02:05:22;;;;;;;;;;;;;;;;;;1919138;28;7061;-64
2023/10/19 02:06:19;;;;;;;;;;;;;;;;;;1919095;28;7113;-64
2023/10/19 02:07:17;;;;;;;;;;;;;;;;;;1919316;28;7053;-64
2023/10/19 02:08:17;;;;;;;;;;;;;;;;;;1919917;28;7009;-64
2023/10/19 02:09:32;;;;;;;;;;;;;;;;;;1919799;28;7045;-64
2023/10/19 02:10:32;;;;;;;;;;;;;;;;;;1907659;28;7302;-64
2023/10/19 02:11:29;;;;;;;;;;;;;;;;;;1905447;28;7131;-64
2023/10/19 02:12:27;;;;;;;;;;;;;;;;;;1914536;28;7093;-65
2023/10/19 02:13:24;;;;;;;;;;;;;;;;;;1920438;28;7005;-65
2023/10/19 02:14:22;;;;;;;;;;;;;;;;;;1919674;28;7132;-64
2023/10/19 02:15:22;;;;;;;;;;;;;;;;;;1918306;28;7009;-65
2023/10/19 02:16:22;;;;;;;;;;;;;;;;;;1919894;28;8050;-65
2023/10/19 02:17:19;;;;;;;;;;;;;;;;;;1919576;28;7092;-65
2023/10/19 02:18:17;;;;;;;;;;;;;;;;;;1921029;28;7292;-64
2023/10/19 02:19:15;;;;;;;;;;;;;;;;;;1921859;28;7141;-64
2023/10/19 02:20:17;;;;;;;;;;;;;;;;;;1919433;28;7089;-65
2023/10/19 02:21:39;;;;;;;;;;;;;;;;;;1919573;28;7112;-64
2023/10/19 02:22:36;;;;;;;;;;;;;;;;;;1919094;28;7046;-64
2023/10/19 02:23:34;;;;;;;;;;;;;;;;;;1919452;28;8028;-64
2023/10/19 02:24:32;;;;;;;;;;;;;;;;;;1919155;28;7042;-63
2023/10/19 02:25:36;;;;;;;;;;;;;;;;;;1919440;28;7099;-64
2023/10/19 02:26:34;;;;;;;;;;;;;;;;;;1919252;28;8035;-64
2023/10/19 02:27:32;;;;;;;;;;;;;;;;;;1913657;28;7005;-64
2023/10/19 02:28:31;;;;;;;;;;;;;;;;;;1919176;28;7041;-65
2023/10/19 02:29:29;;;;;;;;;;;;;;;;;;1912088;28;7009;-64
2023/10/19 02:30:26;;;;;;;;;;;;;;;;;;1919830;28;7146;-64
2023/10/19 02:31:25;;;;;;;;;;;;;;;;;;1919243;28;7010;-64
2023/10/19 02:32:23;;;;;;;;;;;;;;;;;;1915928;28;7026;-64
2023/10/19 02:33:21;;;;;;;;;;;;;;;;;;1916979;28;7041;-64
2023/10/19 02:34:18;;;;;;;;;;;;;;;;;;1916930;28;7320;-64
2023/10/19 02:35:16;;;;;;;;;;;;;;;;;;1918606;28;7012;-65
2023/10/19 02:36:15;;;;;;;;;;;;;;;;;;1919716;28;7156;-64
2023/10/19 02:37:13;;;;;;;;;;;;;;;;;;1915735;28;8050;-65
2023/10/19 02:38:11;;;;;;;;;;;;;;;;;;1917878;28;7060;-65
2023/10/19 02:39:10;;;;;;;;;;;;;;;;;;1919026;28;7196;-64
2023/10/19 02:40:31;;;;;;;;;;;;;;;;;;1918894;28;7093;-65
2023/10/19 02:41:28;;;;;;;;;;;;;;;;;;1919320;28;7329;-65
2023/10/19 02:42:25;;;;;;;;;;;;;;;;;;1919449;28;7013;-64
2023/10/19 02:43:24;;;;;;;;;;;;;;;;;;1918125;28;7009;-64
2023/10/19 02:44:22;;;;;;;;;;;;;;;;;;1918770;28;7008;-64
2023/10/19 02:45:20;;;;;;;;;;;;;;;;;;1919016;28;7311;-64
2023/10/19 02:46:17;;;;;;;;;;;;;;;;;;1919235;28;7013;-65
2023/10/19 02:47:15;;;;;;;;;;;;;;;;;;1919860;28;7009;-64
2023/10/19 02:48:12;;;;;;;;;;;;;;;;;;1919446;28;7009;-64
2023/10/19 02:49:13;;;;;;;;;;;;;;;;;;1919256;28;7008;-64
2023/10/19 02:50:16;;;;;;;;;;;;;;;;;;1919228;28;8157;-65
2023/10/19 02:51:13;;;;;;;;;;;;;;;;;;1916608;28;7157;-64
2023/10/19 02:52:13;;;;;;;;;;;;;;;;;;1919498;28;7021;-64
2023/10/19 02:53:13;;;;;;;;;;;;;;;;;;1919426;28;7095;-64
2023/10/19 02:54:22;;;;;;;;;;;;;;;;;;1919758;28;7156;-64
2023/10/19 02:55:23;;;;;;;;;;;;;;;;;;1919527;28;7318;-65
2023/10/19 02:56:23;;;;;;;;;;;;;;;;;;1919420;28;7088;-65
2023/10/19 02:57:21;;;;;;;;;;;;;;;;;;1920258;28;7140;-65
2023/10/19 02:58:18;;;;;;;;;;;;;;;;;;1919870;28;7029;-64
2023/10/19 02:59:16;;;;;;;;;;;;;;;;;;1918695;28;7096;-65
2023/10/19 03:00:14;;;;;;;;;;;;;;;;;;1919298;28;7009;-64
2023/10/19 03:01:13;;;;;;;;;;;;;;;;;;1917289;28;8113;-64
2023/10/19 03:03:08;;;;;;;;;;;;;;;;;;1919538;28;8046;-64
2023/10/19 03:04:06;;;;;;;;;;;;;;;;;;1919874;28;7100;-65
2023/10/19 03:05:12;;;;;;;;;;;;;;;;;;1919362;28;7009;-64
2023/10/19 03:06:10;;;;;;;;;;;;;;;;;;1918926;28;7172;-64
2023/10/19 03:07:07;;;;;;;;;;;;;;;;;;1917660;28;7088;-64
2023/10/19 03:08:05;;;;;;;;;;;;;;;;;;1918649;28;7005;-65
2023/10/19 03:09:22;;;;;;;;;;;;;;;;;;1918878;28;7009;-65
2023/10/19 03:11:03;;;;;;;;;;;;;;;;;;1916620;28;7042;-64
2023/10/19 03:11:44;;;;;;;;;;;;;;;;;;1910713;28;7113;-64
2023/10/19 03:12:43;;;;;;;;;;;;;;;;;;1911515;28;7280;-64
2023/10/19 03:13:41;;;;;;;;;;;;;;;;;;1918433;28;7204;-64
2023/10/19 03:14:38;;;;;;;;;;;;;;;;;;1919060;28;7009;-64
2023/10/19 03:15:36;;;;;;;;;;;;;;;;;;1919051;28;7144;-64
2023/10/19 03:16:34;;;;;;;;;;;;;;;;;;1919126;28;7009;-64
2023/10/19 03:17:32;;;;;;;;;;;;;;;;;;1920049;28;7096;-64
2023/10/19 03:18:30;;;;;;;;;;;;;;;;;;1917851;28;7125;-65
2023/10/19 03:19:28;;;;;;;;;;;;;;;;;;1911922;28;7100;-64
2023/10/19 03:20:27;;;;;;;;;;;;;;;;;;1912489;28;7080;-64
2023/10/19 03:21:26;;;;;;;;;;;;;;;;;;1912137;28;7009;-64
2023/10/19 03:22:24;;;;;;;;;;;;;;;;;;1918983;28;7045;-65
2023/10/19 03:23:22;;;;;;;;;;;;;;;;;;1912114;28;7009;-65
2023/10/19 03:25:49;;;;;;;;;;;;;;;;;;1917920;28;7017;-64
2023/10/19 03:26:49;;;;;;;;;;;;;;;;;;1917759;28;7155;-64
2023/10/19 03:27:46;;;;;;;;;;;;;;;;;;1916850;28;7013;-65
2023/10/19 03:28:45;;;;;;;;;;;;;;;;;;1916620;28;7049;-64
2023/10/19 03:29:47;;;;;;;;;;;;;;;;;;1919523;28;7009;-64
2023/10/19 03:30:47;;;;;;;;;;;;;;;;;;1919842;28;7041;-64
2023/10/19 03:31:45;;;;;;;;;;;;;;;;;;1916858;28;7013;-65
2023/10/19 03:32:42;;;;;;;;;;;;;;;;;;1918691;28;7033;-65
2023/10/19 03:33:40;;;;;;;;;;;;;;;;;;1916888;28;7005;-65
2023/10/19 03:34:38;;;;;;;;;;;;;;;;;;1912137;28;7092;-64
2023/10/19 03:35:38;;;;;;;;;;;;;;;;;;1911920;28;7096;-64
2023/10/19 03:36:36;;;;;;;;;;;;;;;;;;1913461;28;7096;-64
2023/10/19 03:37:35;;;;;;;;;;;;;;;;;;1915766;28;7021;-64
2023/10/19 03:38:36;;;;;;;;;;;;;;;;;;1910746;28;8019;-64
2023/10/19 03:39:34;;;;;;;;;;;;;;;;;;1909124;28;7296;-64
2023/10/19 03:40:32;;;;;;;;;;;;;;;;;;1918593;28;7049;-65
2023/10/19 03:41:35;;;;;;;;;;;;;;;;;;1918615;28;7017;-65
2023/10/19 03:42:33;;;;;;;;;;;;;;;;;;1903693;28;7021;-64
2023/10/19 03:43:30;;;;;;;;;;;;;;;;;;1917760;28;7117;-65
2023/10/19 03:44:39;;;;;;;;;;;;;;;;;;1916310;28;7017;-64
2023/10/19 03:45:38;;;;;;;;;;;;;;;;;;1910169;28;7006;-64
2023/10/19 03:46:37;;;;;;;;;;;;;;;;;;1919195;28;8115;-65
2023/10/19 03:47:35;;;;;;;;;;;;;;;;;;1919357;28;8013;-65
2023/10/19 03:48:38;;;;;;;;;;;;;;;;;;1918623;28;8621;-64
2023/10/19 03:49:38;;;;;;;;;;;;;;;;;;1920245;28;7084;-64
2023/10/19 03:50:36;;;;;;;;;;;;;;;;;;1920592;28;7087;-64
2023/10/19 03:51:49;;;;;;;;;;;;;;;;;;1920426;28;7005;-64
2023/10/19 03:52:47;;;;;;;;;;;;;;;;;;1919137;28;7117;-65
2023/10/19 03:53:53;;;;;;;;;;;;;;;;;;1911936;28;7132;-64
2023/10/19 03:54:51;;;;;;;;;;;;;;;;;;1912655;28;7013;-64
2023/10/19 03:55:53;;;;;;;;;;;;;;;;;;1919751;28;7166;-64
2023/10/19 03:56:57;;;;;;;;;;;;;;;;;;1919945;28;7009;-64
2023/10/19 03:57:55;;;;;;;;;;;;;;;;;;1920326;28;7013;-64
2023/10/19 03:58:52;;;;;;;;;;;;;;;;;;1920559;28;7009;-64
2023/10/19 03:59:55;;;;;;;;;;;;;;;;;;1920890;28;7105;-65
2023/10/19 04:00:53;;;;;;;;;;;;;;;;;;1920454;28;8030;-64
2023/10/19 04:01:50;;;;;;;;;;;;;;;;;;1920701;28;7654;-64
2023/10/19 04:02:50;;;;;;;;;;;;;;;;;;1920722;28;7020;-64
2023/10/19 04:03:48;;;;;;;;;;;;;;;;;;1920063;28;7255;-64
2023/10/19 04:04:47;;;;;;;;;;;;;;;;;;1920491;28;7095;-65
2023/10/19 04:05:46;;;;;;;;;;;;;;;;;;1920006;28;8192;-64
2023/10/19 04:06:47;;;;;;;;;;;;;;;;;;1913034;28;7956;-64
2023/10/19 04:07:45;;;;;;;;;;;;;;;;;;1912088;28;7009;-64
2023/10/19 04:08:42;;;;;;;;;;;;;;;;;;1911891;28;7013;-64
2023/10/19 04:09:57;;;;;;;;;;;;;;;;;;1912607;28;7013;-64
2023/10/19 04:11:21;;;;;;;;;;;;;;;;;;1912979;28;7049;-64
2023/10/19 04:12:19;;;;;;;;;;;;;;;;;;1912269;28;7076;-64
2023/10/19 04:13:17;;;;;;;;;;;;;;;;;;1912602;28;7041;-64
2023/10/19 04:14:20;;;;;;;;;;;;;;;;;;1912503;28;7005;-64
2023/10/19 04:15:17;;;;;;;;;;;;;;;;;;1911205;28;7131;-64
2023/10/19 04:16:15;;;;;;;;;;;;;;;;;;1912250;28;7088;-64
2023/10/19 04:17:12;;;;;;;;;;;;;;;;;;1912699;28;7092;-64
2023/10/19 04:18:10;;;;;;;;;;;;;;;;;;1912766;28;7224;-64
2023/10/19 04:19:09;;;;;;;;;;;;;;;;;;1912822;28;7244;-64
2023/10/19 04:20:54;;;;;;;;;;;;;;;;;;1912621;28;7009;-64
2023/10/19 04:21:27;;;;;;;;;;;;;;;;;;1899229;28;7046;-65
2023/10/19 04:22:24;;;;;;;;;;;;;;;;;;1912477;28;7009;-64
2023/10/19 04:23:26;;;;;;;;;;;;;;;;;;1912906;28;7008;-64
2023/10/19 04:24:24;;;;;;;;;;;;;;;;;;1912992;28;7008;-64
2023/10/19 04:25:29;;;;;;;;;;;;;;;;;;1912799;28;7088;-64
2023/10/19 04:26:27;;;;;;;;;;;;;;;;;;1912513;28;7220;-64
2023/10/19 04:27:26;;;;;;;;;;;;;;;;;;1912714;28;7036;-64
2023/10/19 04:28:44;;;;;;;;;;;;;;;;;;1913464;28;7046;-64
2023/10/19 04:29:43;;;;;;;;;;;;;;;;;;1912697;28;7046;-64
2023/10/19 04:30:41;;;;;;;;;;;;;;;;;;1913083;28;7116;-64
2023/10/19 04:31:49;;;;;;;;;;;;;;;;;;1912916;28;7016;-64
2023/10/19 04:32:48;;;;;;;;;;;;;;;;;;1913440;28;8031;-65
2023/10/19 04:33:47;;;;;;;;;;;;;;;;;;1911755;28;7025;-64
2023/10/19 04:34:45;;;;;;;;;;;;;;;;;;1912717;28;7016;-65
2023/10/19 04:35:42;;;;;;;;;;;;;;;;;;1912890;28;7093;-65
2023/10/19 04:36:39;;;;;;;;;;;;;;;;;;1905397;28;8095;-63
2023/10/19 04:37:37;;;;;;;;;;;;;;;;;;1904801;28;8465;-64
2023/10/19 04:38:34;;;;;;;;;;;;;;;;;;1912145;28;7133;-65
2023/10/19 04:39:34;;;;;;;;;;;;;;;;;;1912733;28;7116;-65
2023/10/19 04:40:31;;;;;;;;;;;;;;;;;;1913167;28;7009;-64
2023/10/19 04:41:29;;;;;;;;;;;;;;;;;;1913047;28;8054;-65
2023/10/19 04:42:27;;;;;;;;;;;;;;;;;;1911508;28;7334;-64
2023/10/19 04:43:25;;;;;;;;;;;;;;;;;;1913138;28;7037;-65
2023/10/19 04:44:22;;;;;;;;;;;;;;;;;;1913180;28;7092;-64
2023/10/19 04:45:20;;;;;;;;;;;;;;;;;;1912850;28;7129;-64
2023/10/19 04:46:18;;;;;;;;;;;;;;;;;;1913093;28;7352;-63
2023/10/19 04:47:16;;;;;;;;;;;;;;;;;;1912853;28;7127;-64
2023/10/19 04:48:14;;;;;;;;;;;;;;;;;;1912888;28;8051;-64
2023/10/19 04:49:11;;;;;;;;;;;;;;;;;;1912797;28;8233;-63
2023/10/19 04:50:10;;;;;;;;;;;;;;;;;;1912810;28;7128;-64
2023/10/19 04:51:11;;;;;;;;;;;;;;;;;;1913160;28;7013;-64
2023/10/19 04:52:08;;;;;;;;;;;;;;;;;;1912418;28;7001;-65
2023/10/19 04:53:06;;;;;;;;;;;;;;;;;;1912777;28;7092;-64
2023/10/19 04:54:04;;;;;;;;;;;;;;;;;;1912383;28;8904;-64
2023/10/19 04:55:01;;;;;;;;;;;;;;;;;;1912997;28;7095;-64
2023/10/19 04:56:01;;;;;;;;;;;;;;;;;;1912681;28;7124;-64
2023/10/19 04:57:00;;;;;;;;;;;;;;;;;;1913083;28;7042;-64
2023/10/19 04:57:59;;;;;;;;;;;;;;;;;;1911909;28;7542;-64
2023/10/19 04:58:56;;;;;;;;;;;;;;;;;;1912956;28;7396;-64
2023/10/19 04:59:55;;;;;;;;;;;;;;;;;;1912446;28;7010;-64
2023/10/19 05:00:53;;;;;;;;;;;;;;;;;;1911410;28;7845;-64
2023/10/19 05:01:50;;;;;;;;;;;;;;;;;;1911959;28;7046;-64
2023/10/19 05:02:48;;;;;;;;;;;;;;;;;;1912128;28;7123;-64
2023/10/19 05:03:45;;;;;;;;;;;;;;;;;;1912191;28;8035;-64
2023/10/19 05:04:43;;;;;;;;;;;;;;;;;;1912656;28;7055;-64
2023/10/19 05:05:42;;;;;;;;;;;;;;;;;;1913211;28;7130;-64
2023/10/19 05:06:40;;;;;;;;;;;;;;;;;;1912465;28;7148;-64
2023/10/19 05:07:37;;;;;;;;;;;;;;;;;;1910330;28;7252;-64
2023/10/19 05:08:36;;;;;;;;;;;;;;;;;;1911517;28;7308;-64
2023/10/19 05:09:34;;;;;;;;;;;;;;;;;;1912671;28;7005;-66
2023/10/19 05:10:31;;;;;;;;;;;;;;;;;;1910490;28;7016;-64
2023/10/19 05:11:30;;;;;;;;;;;;;;;;;;1905482;28;7131;-64
2023/10/19 05:12:28;;;;;;;;;;;;;;;;;;1908964;28;7092;-64
2023/10/19 05:13:25;;;;;;;;;;;;;;;;;;1911188;28;7041;-64
2023/10/19 05:14:24;;;;;;;;;;;;;;;;;;1912639;28;7096;-64
2023/10/19 05:15:21;;;;;;;;;;;;;;;;;;1912840;28;7000;-64
2023/10/19 05:16:18;;;;;;;;;;;;;;;;;;1912043;28;7045;-64
2023/10/19 05:17:16;;;;;;;;;;;;;;;;;;1912593;28;7008;-64
2023/10/19 05:18:14;;;;;;;;;;;;;;;;;;1912400;28;7088;-65
2023/10/19 05:19:11;;;;;;;;;;;;;;;;;;1912678;28;7103;-64
2023/10/19 05:20:09;;;;;;;;;;;;;;;;;;1910217;28;7016;-64
2023/10/19 05:21:07;;;;;;;;;;;;;;;;;;1911841;28;7307;-64
2023/10/19 05:22:06;;;;;;;;;;;;;;;;;;1912380;28;7009;-64
2023/10/19 05:23:04;;;;;;;;;;;;;;;;;;1912608;28;7000;-65
2023/10/19 05:24:01;;;;;;;;;;;;;;;;;;1912530;28;7096;-64
2023/10/19 05:24:59;;;;;;;;;;;;;;;;;;1911095;28;7985;-64
2023/10/19 05:26:00;;;;;;;;;;;;;;;;;;1907373;28;8019;-64
2023/10/19 05:26:58;;;;;;;;;;;;;;;;;;1912675;28;7128;-64
2023/10/19 05:27:55;;;;;;;;;;;;;;;;;;1912432;28;7084;-64
2023/10/19 05:28:54;;;;;;;;;;;;;;;;;;1909378;28;7008;-64
2023/10/19 05:29:51;;;;;;;;;;;;;;;;;;1912400;28;7379;-64
2023/10/19 05:30:50;;;;;;;;;;;;;;;;;;1912370;28;7029;-65
2023/10/19 05:31:47;;;;;;;;;;;;;;;;;;1912627;28;7105;-64
2023/10/19 05:32:46;;;;;;;;;;;;;;;;;;1911720;28;7262;-65
2023/10/19 05:33:44;;;;;;;;;;;;;;;;;;1912766;28;7652;-64
2023/10/19 05:34:41;;;;;;;;;;;;;;;;;;1912553;28;7096;-64
2023/10/19 05:35:43;;;;;;;;;;;;;;;;;;1912094;28;7013;-64
2023/10/19 05:36:43;;;;;;;;;;;;;;;;;;1907842;28;7118;-64
2023/10/19 05:37:40;;;;;;;;;;;;;;;;;;1912287;28;7075;-64
2023/10/19 05:38:38;;;;;;;;;;;;;;;;;;1911155;28;7044;-65
2023/10/19 05:39:36;;;;;;;;;;;;;;;;;;1910883;28;7049;-65
2023/10/19 05:40:35;;;;;;;;;;;;;;;;;;1911710;28;7009;-64
2023/10/19 05:41:33;;;;;;;;;;;;;;;;;;1911879;28;7149;-64
2023/10/19 05:42:31;;;;;;;;;;;;;;;;;;1902561;28;7088;-64
2023/10/19 05:43:29;;;;;;;;;;;;;;;;;;1912143;28;7116;-64
2023/10/19 05:44:30;;;;;;;;;;;;;;;;;;1912808;28;8034;-64
2023/10/19 05:45:28;;;;;;;;;;;;;;;;;;1910989;28;7152;-64
2023/10/19 05:46:28;;;;;;;;;;;;;;;;;;1912567;28;8012;-64
2023/10/19 05:47:26;;;;;;;;;;;;;;;;;;1912739;28;7029;-64
2023/10/19 05:48:24;;;;;;;;;;;;;;;;;;1912327;28;7141;-64
2023/10/19 05:49:23;;;;;;;;;;;;;;;;;;1913067;28;7304;-64
2023/10/19 05:50:21;;;;;;;;;;;;;;;;;;1910756;28;7013;-64
2023/10/19 05:51:18;;;;;;;;;;;;;;;;;;1912682;28;8004;-64
2023/10/19 05:52:16;;;;;;;;;;;;;;;;;;1912472;28;7009;-64
2023/10/19 05:53:18;;;;;;;;;;;;;;;;;;1912930;28;8015;-64
2023/10/19 05:54:16;;;;;;;;;;;;;;;;;;1912170;28;7013;-64
2023/10/19 05:55:14;;;;;;;;;;;;;;;;;;1912684;28;7005;-65
2023/10/19 05:56:12;;;;;;;;;;;;;;;;;;1911163;28;7009;-65
2023/10/19 05:57:09;;;;;;;;;;;;;;;;;;1908856;28;7024;-64
2023/10/19 05:58:06;;;;;;;;;;;;;;;;;;1908202;28;7053;-64
2023/10/19 05:59:05;;;;;;;;;;;;;;;;;;1909339;28;7017;-64
2023/10/19 06:00:05;;;;;;;;;;;;;;;;;;1911170;28;7109;-65
2023/10/19 06:01:02;;;;;;;;;;;;;;;;;;1912682;28;7096;-64
2023/10/19 06:02:00;;;;;;;;;;;;;;;;;;1911586;28;7189;-64
2023/10/19 06:02:57;;;;;;;;;;;;;;;;;;1912078;28;7017;-65
2023/10/19 06:03:56;;;;;;;;;;;;;;;;;;1912487;28;7050;-64
2023/10/19 06:04:53;;;;;;;;;;;;;;;;;;1912884;28;7096;-65
2023/10/19 06:05:51;;;;;;;;;;;;;;;;;;1910546;28;7323;-64
2023/10/19 06:06:49;;;;;;;;;;;;;;;;;;1920494;28;7013;-64
2023/10/19 06:07:48;;;;;;;;;;;;;;;;;;1920078;28;7152;-64
2023/10/19 06:08:45;;;;;;;;;;;;;;;;;;1920582;28;7021;-65
2023/10/19 06:09:43;;;;;;;;;;;;;;;;;;1916830;28;7013;-64
2023/10/19 06:10:42;;;;;;;;;;;;;;;;;;1918235;28;7108;-65
2023/10/19 06:11:42;;;;;;;;;;;;;;;;;;1919811;28;7033;-64
2023/10/19 06:12:40;;;;;;;;;;;;;;;;;;1918752;28;7128;-65
2023/10/19 06:13:37;;;;;;;;;;;;;;;;;;1920465;28;7013;-65
2023/10/19 06:14:35;;;;;;;;;;;;;;;;;;1920045;28;7034;-64
2023/10/19 06:15:32;;;;;;;;;;;;;;;;;;1919583;28;7097;-64
2023/10/19 06:16:30;;;;;;;;;;;;;;;;;;1919489;28;7359;-65
2023/10/19 06:17:28;;;;;;;;;;;;;;;;;;1919757;28;7037;-64
2023/10/19 06:18:26;;;;;;;;;;;;;;;;;;1920607;28;7017;-64
2023/10/19 06:19:24;;;;;;;;;;;;;;;;;;1920390;28;7057;-65
2023/10/19 06:20:24;;;;;;;;;;;;;;;;;;1919687;28;7013;-64
2023/10/19 06:21:22;;;;;;;;;;;;;;;;;;1919799;28;7091;-64
2023/10/19 06:22:19;;;;;;;;;;;;;;;;;;1919846;28;7049;-64
2023/10/19 06:23:17;;;;;;;;;;;;;;;;;;1919349;28;7013;-64
2023/10/19 06:24:15;;;;;;;;;;;;;;;;;;1920352;28;7096;-64
2023/10/19 06:25:14;;;;;;;;;;;;;;;;;;1920478;28;8046;-64
2023/10/19 06:26:12;;;;;;;;;;;;;;;;;;1917180;28;8285;-64
2023/10/19 06:27:10;;;;;;;;;;;;;;;;;;1916730;28;7330;-64
2023/10/19 06:28:07;;;;;;;;;;;;;;;;;;1917530;28;7049;-64
2023/10/19 06:29:05;;;;;;;;;;;;;;;;;;1919184;28;7006;-65
2023/10/19 06:30:03;;;;;;;;;;;;;;;;;;1912018;28;7957;-64
2023/10/19 06:31:01;;;;;;;;;;;;;;;;;;1912538;28;7009;-65
2023/10/19 06:31:58;;;;;;;;;;;;;;;;;;1919320;28;7088;-65
2023/10/19 06:33:00;;;;;;;;;;;;;;;;;;1917706;28;7066;-64
2023/10/19 06:34:00;;;;;;;;;;;;;;;;;;1912773;28;7009;-64
2023/10/19 06:35:01;;;;;;;;;;;;;;;;;;1913758;28;7054;-64
2023/10/19 06:35:59;;;;;;;;;;;;;;;;;;1911988;28;7013;-64
2023/10/19 06:36:57;;;;;;;;;;;;;;;;;;1917938;28;7008;-64
2023/10/19 06:37:56;;;;;;;;;;;;;;;;;;1919735;28;8062;-64
2023/10/19 06:38:54;;;;;;;;;;;;;;;;;;1919440;28;8035;-64
2023/10/19 06:39:52;;;;;;;;;;;;;;;;;;1918108;28;7009;-65
2023/10/19 06:40:50;;;;;;;;;;;;;;;;;;1904270;28;7027;-65
2023/10/19 06:41:49;;;;;;;;;;;;;;;;;;1907476;28;7044;-64
2023/10/19 06:42:47;;;;;;;;;;;;;;;;;;1904821;28;7017;-65
2023/10/19 06:43:44;;;;;;;;;;;;;;;;;;1918761;28;7013;-65
2023/10/19 06:44:43;;;;;;;;;;;;;;;;;;1911130;28;9050;-65
2023/10/19 06:45:40;;;;;;;;;;;;;;;;;;1906150;28;7984;-64
2023/10/19 06:46:39;;;;;;;;;;;;;;;;;;1911182;28;7130;-64
2023/10/19 06:47:39;;;;;;;;;;;;;;;;;;1918895;28;7017;-64
2023/10/19 06:48:37;;;;;;;;;;;;;;;;;;1919388;28;7010;-65
2023/10/19 06:49:34;;;;;;;;;;;;;;;;;;1920131;28;8017;-65
2023/10/19 06:50:33;;;;;;;;;;;;;;;;;;1919267;28;7010;-65
2023/10/19 06:51:32;;;;;;;;;;;;;;;;;;1919889;28;7095;-65
2023/10/19 06:52:29;;;;;;;;;;;;;;;;;;1910902;28;7042;-64
2023/10/19 06:53:27;;;;;;;;;;;;;;;;;;1919382;28;7187;-64
2023/10/19 06:54:24;;;;;;;;;;;;;;;;;;1920102;28;7450;-65
2023/10/19 06:55:25;;;;;;;;;;;;;;;;;;1919964;28;7021;-65
2023/10/19 06:56:22;;;;;;;;;;;;;;;;;;1919087;28;8282;-65
2023/10/19 06:57:20;;;;;;;;;;;;;;;;;;1918881;28;7021;-64
2023/10/19 06:58:21;;;;;;;;;;;;;;;;;;1919548;28;7135;-65
2023/10/19 06:59:18;;;;;;;;;;;;;;;;;;1919040;28;8868;-64